createdAt,value
2018-12-07T00:01:39.002Z,96903.94
2018-12-07T00:04:09.105Z,96913.19
2018-12-07T00:06:39.982Z,96911.16
2018-12-07T00:09:09.898Z,96911.03
2018-12-07T00:11:39.858Z,96907.03
2018-12-07T00:14:09.860Z,96908.91
2018-12-07T00:16:39.788Z,96908.42
2018-12-07T00:19:09.861Z,96909.27
2018-12-07T00:21:39.957Z,96896.75
2018-12-07T00:24:10.034Z,96896.71
2018-12-07T00:26:40.346Z,96893.53
2018-12-07T00:29:10.269Z,96897.17
2018-12-07T00:31:40.367Z,96898.13
2018-12-07T00:34:10.370Z,96894.45
2018-12-07T00:36:40.394Z,96891.89
2018-12-07T00:39:10.393Z,96886.89
2018-12-07T00:41:40.432Z,96889.81
2018-12-07T00:44:10.364Z,96883.14
2018-12-07T00:46:40.368Z,96877.36
2018-12-07T00:49:10.297Z,96876.33
2018-12-07T00:51:40.394Z,96872.17
2018-12-07T00:54:10.314Z,96874.53
2018-12-07T00:56:40.255Z,96872.17
2018-12-07T00:59:10.181Z,96857.55
2018-12-07T01:01:40.193Z,96864.87
2018-12-07T01:04:10.277Z,96862.73
2018-12-07T01:06:40.274Z,96864.31
2018-12-07T01:09:10.218Z,96853.97
2018-12-07T01:11:41.101Z,96861.02
2018-12-07T01:14:11.141Z,96864.52
2018-12-07T01:16:41.157Z,96862.06
2018-12-07T01:19:11.445Z,96855.44
2018-12-07T01:21:41.371Z,96856.19
2018-12-07T01:24:11.322Z,96859.11
2018-12-07T01:26:41.248Z,96862.70
2018-12-07T01:29:11.341Z,96859.03
2018-12-07T01:31:41.270Z,96862.38
2018-12-07T01:34:11.277Z,96863.65
2018-12-07T01:36:41.297Z,96860.06
2018-12-07T01:42:17.584Z,96857.58
2018-12-07T01:50:54.177Z,96845.78
2018-12-07T01:53:24.277Z,96843.48
2018-12-07T01:55:54.181Z,96839.78
2018-12-07T01:58:24.117Z,96835.48
2018-12-07T02:00:54.097Z,96835.70
2018-12-07T02:03:24.194Z,96837.52
2018-12-07T02:05:54.185Z,96838.67
2018-12-07T02:08:24.114Z,96835.56
2018-12-07T02:10:54.176Z,96835.48
2018-12-07T02:13:24.176Z,96840.13
2018-12-07T02:15:54.120Z,96826.19
2018-12-07T02:18:24.066Z,96828.77
2018-12-07T02:20:54.125Z,96825.77
2018-12-07T02:23:24.278Z,96815.77
2018-12-07T02:25:54.184Z,96808.46
2018-12-07T02:28:24.117Z,96809.78
2018-12-07T02:30:54.086Z,96808.61
2018-12-07T02:33:24.013Z,96805.74
2018-12-07T02:35:53.933Z,96803.75
2018-12-07T02:38:23.888Z,96799.66
2018-12-07T02:41:00.081Z,96798.03
2018-12-07T02:43:30.015Z,96799.14
2018-12-07T02:45:59.916Z,96801.57
2018-12-07T02:48:29.848Z,96791.94
2018-12-07T02:50:59.781Z,96790.41
2018-12-07T02:53:29.756Z,96783.45
2018-12-07T02:55:59.698Z,96778.98
2018-12-07T02:58:29.807Z,96777.39
2018-12-07T03:00:59.973Z,96772.60
2018-12-07T03:03:29.886Z,96759.68
2018-12-07T03:05:59.816Z,96759.25
2018-12-07T03:08:29.728Z,96755.36
2018-12-07T03:10:59.709Z,96754.75
2018-12-07T03:13:29.701Z,96740.41
2018-12-07T03:15:59.734Z,96728.38
2018-12-07T03:18:32.965Z,96726.52
2018-12-07T03:21:02.970Z,96725.59
2018-12-07T03:23:32.897Z,96718.67
2018-12-07T03:26:02.886Z,96721.02
2018-12-07T03:28:32.788Z,96718.98
2018-12-07T03:31:02.722Z,96715.17
2018-12-07T03:33:32.695Z,96719.27
2018-12-07T03:36:02.877Z,96716.91
2018-12-07T03:38:32.806Z,96717.81
2018-12-07T03:41:02.933Z,96725.56
2018-12-07T03:43:33.150Z,96722.06
2018-12-07T03:46:03.257Z,96719.05
2018-12-07T03:48:33.327Z,96718.77
2018-12-07T03:51:03.271Z,96722.70
2018-12-07T03:53:33.273Z,96712.53
2018-12-07T03:56:03.285Z,96709.86
2018-12-07T03:58:33.269Z,96711.70
2018-12-07T04:01:03.269Z,96707.09
2018-12-07T04:03:33.469Z,96709.14
2018-12-07T04:06:03.429Z,96710.17
2018-12-07T04:08:33.450Z,96708.35
2018-12-07T04:11:03.416Z,96708.35
2018-12-07T04:13:33.358Z,96697.98
2018-12-07T04:16:05.031Z,96699.61
2018-12-07T04:18:35.102Z,96701.28
2018-12-07T04:21:05.118Z,96698.28
2018-12-07T04:23:35.219Z,96688.39
2018-12-07T04:26:05.521Z,96688.44
2018-12-07T04:28:37.477Z,96684.05
2018-12-07T04:31:07.600Z,96689.71
2018-12-07T04:33:37.542Z,96693.95
2018-12-07T04:36:07.888Z,96679.72
2018-12-07T04:38:37.941Z,96674.87
2018-12-07T04:41:07.852Z,96677.58
2018-12-07T04:43:37.805Z,96677.52
2018-12-07T04:46:09.701Z,96677.30
2018-12-07T04:48:39.631Z,96671.72
2018-12-07T04:51:09.606Z,96677.66
2018-12-07T04:53:39.739Z,96678.28
2018-12-07T04:56:09.773Z,96676.66
2018-12-07T04:58:39.717Z,96670.19
2018-12-07T05:01:09.910Z,96666.66
2018-12-07T05:03:39.891Z,96667.41
2018-12-07T05:06:09.870Z,96659.55
2018-12-07T05:08:39.998Z,96658.81
2018-12-07T05:11:09.946Z,96654.70
2018-12-07T05:13:39.941Z,96647.66
2018-12-07T05:16:09.861Z,96646.63
2018-12-07T05:18:40.052Z,96644.95
2018-12-07T05:21:10.053Z,96648.23
2018-12-07T05:23:39.977Z,96644.64
2018-12-07T05:26:09.937Z,96638.35
2018-12-07T05:28:39.927Z,96639.87
2018-12-07T05:31:09.889Z,96642.36
2018-12-07T05:33:39.866Z,96635.33
2018-12-07T05:36:09.772Z,96636.56
2018-12-07T05:38:40.954Z,96632.19
2018-12-07T05:41:10.900Z,96640.23
2018-12-07T05:43:57.327Z,96627.31
2018-12-07T05:46:29.358Z,96628.66
2018-12-07T05:48:59.433Z,96631.87
2018-12-07T05:51:29.346Z,96635.61
2018-12-07T05:53:59.369Z,96631.66
2018-12-07T05:56:29.353Z,96629.74
2018-12-07T05:58:59.326Z,96625.50
2018-12-07T06:01:29.313Z,96625.22
2018-12-07T06:03:59.502Z,96624.63
2018-12-07T06:06:29.509Z,96626.66
2018-12-07T06:08:59.433Z,96622.30
2018-12-07T06:11:29.436Z,96621.54
2018-12-07T06:13:59.337Z,96616.04
2018-12-07T06:16:29.312Z,96614.99
2018-12-07T06:18:59.313Z,96619.41
2018-12-07T06:21:29.280Z,96620.22
2018-12-07T06:23:59.223Z,96619.24
2018-12-07T06:26:29.281Z,96619.61
2018-12-07T06:28:59.294Z,96618.14
2018-12-07T06:31:29.664Z,96614.78
2018-12-07T06:33:59.652Z,96614.71
2018-12-07T06:36:29.886Z,96615.97
2018-12-07T06:38:59.817Z,96611.80
2018-12-07T06:41:30.008Z,96614.49
2018-12-07T06:44:00.145Z,96613.18
2018-12-07T06:46:30.389Z,96618.39
2018-12-07T06:49:10.884Z,96603.99
2018-12-07T06:51:42.620Z,96609.59
2018-12-07T06:54:12.717Z,96596.66
2018-12-07T06:56:42.636Z,96592.55
2018-12-07T06:59:12.582Z,96593.64
2018-12-07T07:01:42.679Z,96585.44
2018-12-07T07:04:12.613Z,96581.78
2018-12-07T07:06:42.634Z,96578.67
2018-12-07T07:09:12.556Z,96581.03
2018-12-07T07:11:42.602Z,96578.23
2018-12-07T07:14:12.537Z,96583.67
2018-12-07T07:16:42.455Z,96579.36
2018-12-07T07:19:12.489Z,96581.56
2018-12-07T07:21:42.494Z,96583.95
2018-12-07T07:24:12.435Z,96578.98
2018-12-07T07:26:42.340Z,96571.56
2018-12-07T07:29:12.280Z,96580.44
2018-12-07T07:31:43.639Z,96573.64
2018-12-07T07:34:13.859Z,96566.66
2018-12-07T07:36:43.855Z,96566.56
2018-12-07T07:39:13.801Z,96562.50
2018-12-07T07:41:43.796Z,96562.78
2018-12-07T07:44:14.749Z,96560.42
2018-12-07T07:46:45.393Z,96556.75
2018-12-07T07:49:15.347Z,96555.36
2018-12-07T07:51:45.356Z,96554.41
2018-12-07T07:54:15.511Z,96550.55
2018-12-07T07:56:45.470Z,96546.13
2018-12-07T07:59:15.698Z,96551.73
2018-12-07T08:01:45.744Z,96550.98
2018-12-07T08:07:01.147Z,96541.62
2018-12-07T08:09:32.334Z,96535.14
2018-12-07T08:12:02.238Z,96535.20
2018-12-07T08:14:32.341Z,96531.56
2018-12-07T08:17:02.305Z,96528.02
2018-12-07T08:19:32.300Z,96528.85
2018-12-07T08:22:02.960Z,96514.97
2018-12-07T08:24:33.040Z,96511.95
2018-12-07T08:27:03.073Z,96502.92
2018-12-07T08:29:33.070Z,96493.05
2018-12-07T08:32:03.082Z,96487.99
2018-12-07T08:34:33.078Z,96485.25
2018-12-07T08:37:02.984Z,96480.80
2018-12-07T08:39:33.003Z,96479.81
2018-12-07T08:42:06.685Z,96479.87
2018-12-07T08:44:34.988Z,96466.99
2018-12-07T08:47:05.113Z,96464.56
2018-12-07T08:49:40.362Z,96459.63
2018-12-07T08:52:10.460Z,96464.91
2018-12-07T08:54:40.472Z,96458.53
2018-12-07T08:57:10.523Z,96458.45
2018-12-07T08:59:40.493Z,96455.08
2018-12-07T09:02:10.648Z,96452.38
2018-12-07T09:04:40.576Z,96455.48
2018-12-07T09:07:10.748Z,96459.77
2018-12-07T09:09:40.749Z,96459.84
2018-12-07T09:12:10.741Z,96449.67
2018-12-07T09:14:40.828Z,96453.95
2018-12-07T09:17:10.742Z,96443.61
2018-12-07T09:19:40.672Z,96450.64
2018-12-07T09:22:10.652Z,96448.58
2018-12-07T09:24:40.584Z,96440.69
2018-12-07T09:29:56.012Z,96436.24
2018-12-07T09:32:25.952Z,96439.98
2018-12-07T09:34:55.941Z,96438.66
2018-12-07T09:37:26.906Z,96441.48
2018-12-07T09:39:56.908Z,96442.52
2018-12-07T09:42:26.977Z,96438.39
2018-12-07T09:44:56.929Z,96430.84
2018-12-07T09:47:26.840Z,96430.91
2018-12-07T09:49:56.897Z,96418.09
2018-12-07T09:52:26.896Z,96421.50
2018-12-07T09:54:56.825Z,96420.91
2018-12-07T09:57:26.738Z,96416.50
2018-12-07T09:59:56.660Z,96415.55
2018-12-07T10:02:26.635Z,96404.27
2018-12-07T10:04:56.638Z,96406.80
2018-12-07T10:07:26.600Z,96407.03
2018-12-07T10:09:56.588Z,96401.52
2018-12-07T10:12:26.557Z,96394.49
2018-12-07T10:14:56.467Z,96393.72
2018-12-07T10:17:26.392Z,96383.69
2018-12-07T10:19:56.381Z,96389.11
2018-12-07T10:22:26.394Z,96387.26
2018-12-07T10:24:56.372Z,96371.09
2018-12-07T10:27:26.405Z,96369.16
2018-12-07T10:29:56.363Z,96362.45
2018-12-07T10:32:26.304Z,96368.73
2018-12-07T10:34:56.212Z,96356.34
2018-12-07T10:37:27.508Z,96352.11
2018-12-07T10:39:57.419Z,96344.58
2018-12-07T10:42:27.333Z,96339.06
2018-12-07T10:44:57.418Z,96339.41
2018-12-07T10:47:27.493Z,96337.69
2018-12-07T10:49:57.412Z,96326.73
2018-12-07T10:52:27.338Z,96314.91
2018-12-07T10:54:57.249Z,96307.80
2018-12-07T10:57:27.164Z,96305.59
2018-12-07T10:59:57.090Z,96306.92
2018-12-07T11:02:32.160Z,96298.36
2018-12-07T11:05:07.278Z,96295.48
2018-12-07T11:07:42.492Z,96287.73
2018-12-07T11:10:17.753Z,96272.23
2018-12-07T11:13:53.664Z,96267.55
2018-12-07T11:16:28.892Z,96261.77
2018-12-07T11:19:04.105Z,96264.77
2018-12-07T11:21:40.476Z,96260.86
2018-12-07T11:24:15.856Z,96259.25
2018-12-07T11:26:51.111Z,96259.98
2018-12-07T11:29:26.398Z,96247.97
2018-12-07T11:32:01.626Z,96249.78
2018-12-07T11:37:22.833Z,96243.63
2018-12-07T11:39:52.738Z,96238.21
2018-12-07T11:42:24.608Z,96224.00
2018-12-07T11:44:54.504Z,96221.40
2018-12-07T11:47:24.497Z,96221.22
2018-12-07T11:49:54.433Z,96220.22
2018-12-07T11:52:24.336Z,96209.55
2018-12-07T11:54:54.252Z,96211.61
2018-12-07T11:57:24.309Z,96206.69
2018-12-07T11:59:54.207Z,96207.91
2018-12-07T12:02:26.447Z,96191.69
2018-12-07T12:04:56.065Z,96191.80
2018-12-07T12:07:25.980Z,96187.19
2018-12-07T12:09:55.888Z,96186.88
2018-12-07T12:12:27.805Z,96176.57
2018-12-07T12:14:57.718Z,96182.73
2018-12-07T12:17:27.645Z,96177.80
2018-12-07T12:19:57.657Z,96169.64
2018-12-07T12:22:27.637Z,96166.78
2018-12-07T12:24:57.557Z,96165.74
2018-12-07T12:27:27.469Z,96155.89
2018-12-07T12:29:57.444Z,96133.97
2018-12-07T12:32:27.437Z,96131.69
2018-12-07T12:34:57.418Z,96134.91
2018-12-07T12:37:28.362Z,96122.16
2018-12-07T12:39:58.476Z,96117.81
2018-12-07T12:42:28.472Z,96121.78
2018-12-07T12:44:58.558Z,96112.06
2018-12-07T12:47:28.694Z,96105.23
2018-12-07T12:49:58.660Z,96086.92
2018-12-07T12:52:28.572Z,96068.97
2018-12-07T12:54:58.510Z,96067.02
2018-12-07T12:57:28.464Z,96070.72
2018-12-07T12:59:58.990Z,96063.83
2018-12-07T13:02:29.049Z,96050.70
2018-12-07T13:04:58.997Z,96038.49
2018-12-07T13:07:28.916Z,96022.61
2018-12-07T13:09:58.901Z,96034.34
2018-12-07T13:12:28.872Z,96033.56
2018-12-07T13:17:36.788Z,96029.30
2018-12-07T13:20:08.780Z,96032.23
2018-12-07T13:22:40.212Z,96023.00
2018-12-07T13:25:10.189Z,96007.34
2018-12-07T13:27:40.099Z,95999.96
2018-12-07T13:30:10.149Z,95998.37
2018-12-07T13:32:40.137Z,95979.30
2018-12-07T13:37:55.708Z,95961.67
2018-12-07T13:40:25.647Z,95949.78
2018-12-07T13:45:34.951Z,95951.14
2018-12-07T13:48:06.918Z,95936.14
2018-12-07T13:50:41.885Z,95929.58
2018-12-07T13:53:13.162Z,95936.50
2018-12-07T13:55:43.252Z,95935.49
2018-12-07T13:58:15.201Z,95923.34
2018-12-07T14:00:45.308Z,95925.28
2018-12-07T14:03:15.323Z,95916.35
2018-12-07T14:05:45.471Z,95925.36
2018-12-07T14:08:15.490Z,95920.62
2018-12-07T14:10:45.785Z,95906.33
2018-12-07T14:13:15.949Z,95903.65
2018-12-07T14:15:46.127Z,95890.88
2018-12-07T14:18:16.126Z,95890.11
2018-12-07T14:20:46.101Z,95882.19
2018-12-07T14:23:16.393Z,95883.69
2018-12-07T14:25:46.512Z,95878.20
2018-12-07T14:28:16.821Z,95883.61
2018-12-07T14:30:46.752Z,95869.80
2018-12-07T14:33:16.877Z,95864.49
2018-12-07T14:35:46.914Z,95873.19
2018-12-07T14:38:18.165Z,95875.51
2018-12-07T14:40:48.114Z,95866.31
2018-12-07T14:43:19.157Z,95861.39
2018-12-07T14:45:49.187Z,95864.03
2018-12-07T14:48:19.210Z,95854.13
2018-12-07T14:50:49.253Z,95846.22
2018-12-07T14:53:19.459Z,95844.89
2018-12-07T14:55:49.688Z,95834.14
2018-12-07T14:58:19.724Z,95832.94
2018-12-07T15:00:49.933Z,95825.58
2018-12-07T15:03:19.983Z,95827.72
2018-12-07T15:05:51.724Z,95815.35
2018-12-07T15:08:21.698Z,95819.13
2018-12-07T15:10:51.685Z,95810.20
2018-12-07T15:13:21.783Z,95805.82
2018-12-07T15:15:51.974Z,95798.22
2018-12-07T15:18:22.135Z,95794.61
2018-12-07T15:20:52.179Z,95786.63
2018-12-07T15:23:22.129Z,95778.82
2018-12-07T15:25:56.640Z,95783.03
2018-12-07T15:28:26.762Z,95785.45
2018-12-07T15:30:56.807Z,95785.11
2018-12-07T15:33:27.119Z,95802.84
2018-12-07T15:35:57.185Z,95791.09
2018-12-07T15:38:27.195Z,95787.09
2018-12-07T15:40:57.361Z,95783.75
2018-12-07T15:43:27.438Z,95782.09
2018-12-07T15:45:57.409Z,95772.36
2018-12-07T15:48:27.539Z,95773.28
2018-12-07T15:50:57.512Z,95756.56
2018-12-07T15:53:27.619Z,95779.95
2018-12-07T15:55:57.743Z,95769.05
2018-12-07T15:58:27.809Z,95758.00
2018-12-07T16:00:58.069Z,95758.31
2018-12-07T16:03:28.196Z,95748.50
2018-12-07T16:05:58.224Z,95748.11
2018-12-07T16:08:28.299Z,95763.51
2018-12-07T16:10:58.481Z,95761.65
2018-12-07T16:13:28.689Z,95765.61
2018-12-07T16:15:58.639Z,95758.89
2018-12-07T16:18:28.671Z,95752.69
2018-12-07T16:20:58.860Z,95748.56
2018-12-07T16:23:28.958Z,95756.28
2018-12-07T16:25:59.194Z,95756.48
2018-12-07T16:28:29.281Z,95742.84
2018-12-07T16:30:59.617Z,95746.64
2018-12-07T16:33:29.985Z,95744.61
2018-12-07T16:36:00.064Z,95750.16
2018-12-07T16:38:30.109Z,95766.14
2018-12-07T16:41:00.143Z,95776.19
2018-12-07T16:43:30.071Z,95768.27
2018-12-07T16:46:00.077Z,95738.69
2018-12-07T16:48:30.269Z,95736.77
2018-12-07T16:51:00.449Z,95724.05
2018-12-07T16:53:31.169Z,95701.80
2018-12-07T16:56:01.269Z,95673.74
2018-12-07T16:58:31.281Z,95668.66
2018-12-07T17:01:01.214Z,95639.97
2018-12-07T17:03:31.317Z,95622.42
2018-12-07T17:06:01.329Z,95631.92
2018-12-07T17:08:31.620Z,95643.89
2018-12-07T17:11:01.992Z,95654.31
2018-12-07T17:13:32.035Z,95655.19
2018-12-07T17:16:02.258Z,95651.71
2018-12-07T17:18:32.339Z,95657.16
2018-12-07T17:21:02.623Z,95657.80
2018-12-07T17:23:32.602Z,95651.81
2018-12-07T17:26:02.728Z,95627.83
2018-12-07T17:28:33.695Z,95635.61
2018-12-07T17:31:03.980Z,95616.77
2018-12-07T17:33:34.018Z,95604.56
2018-12-07T17:36:06.663Z,95606.81
2018-12-07T17:38:36.782Z,95603.19
2018-12-07T17:41:06.785Z,95615.11
2018-12-07T17:43:36.764Z,95611.53
2018-12-07T17:46:06.793Z,95605.36
2018-12-07T17:48:36.977Z,95613.77
2018-12-07T17:51:07.013Z,95594.84
2018-12-07T17:53:37.344Z,95587.50
2018-12-07T17:56:07.551Z,95593.89
2018-12-07T17:58:37.789Z,95597.06
2018-12-07T18:01:07.989Z,95581.97
2018-12-07T18:03:39.905Z,95588.15
2018-12-07T18:06:09.897Z,95583.48
2018-12-07T18:08:40.118Z,95575.64
2018-12-07T18:11:10.395Z,95579.77
2018-12-07T18:16:25.651Z,95567.50
2018-12-07T18:18:55.672Z,95562.64
2018-12-07T18:21:25.681Z,95555.16
2018-12-07T18:23:55.948Z,95545.59
2018-12-07T18:26:26.129Z,95549.58
2018-12-07T18:28:56.469Z,95539.17
2018-12-07T18:31:26.588Z,95534.00
2018-12-07T18:33:56.711Z,95534.34
2018-12-07T18:36:26.892Z,95535.28
2018-12-07T18:38:56.861Z,95541.09
2018-12-07T18:41:27.116Z,95539.95
2018-12-07T18:43:57.242Z,95549.86
2018-12-07T18:46:27.204Z,95547.30
2018-12-07T18:48:57.130Z,95539.16
2018-12-07T18:51:27.198Z,95545.38
2018-12-07T18:53:57.393Z,95541.83
2018-12-07T18:56:27.547Z,95542.47
2018-12-07T18:58:57.521Z,95535.20
2018-12-07T19:01:27.669Z,95537.30
2018-12-07T19:03:57.846Z,95538.58
2018-12-07T19:06:28.117Z,95538.75
2018-12-07T19:08:58.074Z,95541.11
2018-12-07T19:11:28.112Z,95535.09
2018-12-07T19:13:58.124Z,95532.22
2018-12-07T19:16:28.276Z,95534.80
2018-12-07T19:18:58.310Z,95539.36
2018-12-07T19:21:28.579Z,95537.56
2018-12-07T19:23:59.994Z,95531.69
2018-12-07T19:26:30.069Z,95525.09
2018-12-07T19:29:00.051Z,95534.64
2018-12-07T19:31:30.230Z,95534.57
2018-12-07T19:34:00.277Z,95546.70
2018-12-07T19:36:30.296Z,95550.64
2018-12-07T19:39:00.314Z,95565.64
2018-12-07T19:41:30.264Z,95544.91
2018-12-07T19:44:00.448Z,95545.45
2018-12-07T19:46:30.479Z,95552.25
2018-12-07T19:49:00.564Z,95554.17
2018-12-07T19:51:30.575Z,95554.48
2018-12-07T19:54:00.704Z,95568.04
2018-12-07T19:56:30.912Z,95576.32
2018-12-07T19:59:00.964Z,95589.25
2018-12-07T20:01:31.118Z,95590.92
2018-12-07T20:04:01.319Z,95605.11
2018-12-07T20:06:31.401Z,95620.53
2018-12-07T20:09:01.352Z,95631.30
2018-12-07T20:11:33.130Z,95659.26
2018-12-07T20:14:03.702Z,95705.91
2018-12-07T20:16:34.143Z,95735.88
2018-12-07T20:19:04.510Z,95729.80
2018-12-07T20:21:34.734Z,95732.80
2018-12-07T20:24:04.862Z,95758.52
2018-12-07T20:26:37.459Z,95756.73
2018-12-07T20:29:07.775Z,95765.91
2018-12-07T20:31:37.873Z,95779.23
2018-12-07T20:34:07.772Z,95781.29
2018-12-07T20:36:37.759Z,95768.62
2018-12-07T20:39:08.524Z,95786.54
2018-12-07T20:41:39.517Z,95765.09
2018-12-07T20:44:09.585Z,95788.09
2018-12-07T20:46:39.584Z,95771.91
2018-12-07T20:49:09.695Z,95784.60
2018-12-07T20:51:40.121Z,95809.47
2018-12-07T20:54:10.155Z,95812.08
2018-12-07T20:56:40.401Z,95821.43
2018-12-07T20:59:10.640Z,95817.31
2018-12-07T21:01:40.648Z,95805.95
2018-12-07T21:04:29.887Z,95827.03
2018-12-07T21:09:27.704Z,95812.98
2018-12-07T21:12:17.561Z,95818.13
2018-12-07T21:14:51.694Z,95820.11
2018-12-07T21:17:29.786Z,95821.21
2018-12-07T21:20:30.894Z,95839.05
2018-12-07T21:23:00.823Z,95840.86
2018-12-07T21:25:31.059Z,95838.98
2018-12-07T21:28:01.338Z,95844.69
2018-12-07T21:31:03.493Z,95838.91
2018-12-07T21:33:47.893Z,95843.30
2018-12-07T21:40:29.257Z,95848.84
2018-12-07T21:42:59.255Z,95865.41
2018-12-07T21:45:29.746Z,95872.95
2018-12-07T21:48:22.484Z,95873.09
2018-12-07T21:51:20.645Z,95883.45
2018-12-07T21:53:51.043Z,95886.41
2018-12-07T21:59:09.922Z,95889.84
2018-12-07T22:01:40.040Z,95898.32
2018-12-07T22:04:10.130Z,95900.84
2018-12-07T22:06:40.418Z,95898.47
2018-12-07T22:09:10.955Z,95907.66
2018-12-07T22:11:43.055Z,95916.20
2018-12-07T22:14:13.138Z,95913.22
2018-12-07T22:16:43.604Z,95910.64
2018-12-07T22:19:13.861Z,95930.61
2018-12-07T22:21:44.242Z,95940.55
2018-12-07T22:24:14.321Z,95925.74
2018-12-07T22:26:44.237Z,95915.81
2018-12-07T22:29:14.307Z,95918.47
2018-12-07T22:31:44.497Z,95924.27
2018-12-07T22:34:14.573Z,95939.37
2018-12-07T22:36:44.666Z,95937.65
2018-12-07T22:39:14.625Z,95956.33
2018-12-07T22:41:44.616Z,95941.74
2018-12-07T22:44:14.558Z,95940.91
2018-12-07T22:46:44.709Z,95943.96
2018-12-07T22:49:14.685Z,95954.65
2018-12-07T22:51:44.665Z,95959.14
2018-12-07T22:54:14.676Z,95962.23
2018-12-07T22:56:44.614Z,95963.27
2018-12-07T22:59:14.614Z,95961.34
2018-12-07T23:01:44.679Z,95969.10
2018-12-07T23:04:14.688Z,95975.27
2018-12-07T23:06:44.667Z,95972.20
2018-12-07T23:09:14.700Z,95975.58
2018-12-07T23:11:44.669Z,95981.61
2018-12-07T23:14:14.716Z,95985.88
2018-12-07T23:16:44.722Z,95979.66
2018-12-07T23:19:14.761Z,95980.73
2018-12-07T23:21:44.738Z,95992.25
2018-12-07T23:24:14.701Z,95995.41
2018-12-07T23:26:44.605Z,95993.44
2018-12-07T23:29:23.056Z,96010.16
2018-12-07T23:31:53.187Z,96011.05
2018-12-07T23:34:23.168Z,96020.50
2018-12-07T23:36:53.152Z,96017.59
2018-12-07T23:39:23.092Z,96023.61
2018-12-07T23:41:53.029Z,96015.61
2018-12-07T23:44:23.533Z,96008.08
2018-12-07T23:46:54.985Z,96012.42
2018-12-07T23:49:25.073Z,96005.20
2018-12-07T23:51:55.104Z,96007.99
2018-12-07T23:54:25.025Z,96017.21
2018-12-07T23:56:55.000Z,96031.42
2018-12-07T23:59:24.921Z,96039.91
